Time;durP1;ratioP1;P1;durP2;ratioP2;P2;SDS_P1;SDS_P2;PMS_P1;PMS_P2;Temp;Humidity;BMP_temperature;BMP_pressure;BME280_temperature;BME280_humidity;BME280_pressure;Samples;Min_cycle;Max_cycle;Signal;HPM_P1;HPM_P2
2022/07/25 00:00:53;;;;;;;5.65;3.00;;;;;;;;;;5034379;28;20033;-66
2022/07/25 00:03:19;;;;;;;4.97;2.80;;;;;;;;;;5018999;28;20068;-67
2022/07/25 00:05:44;;;;;;;5.53;2.55;;;22.80;99.90;;;;;;5018315;28;20041;-66
2022/07/25 00:08:11;;;;;;;6.93;3.15;;;22.80;99.90;;;;;;5018222;28;20040;-66
2022/07/25 00:10:36;;;;;;;5.65;3.28;;;22.70;99.90;;;;;;5035091;28;20052;-66
2022/07/25 00:13:02;;;;;;;6.30;2.95;;;22.40;99.90;;;;;;5035227;28;20310;-66
2022/07/25 00:15:28;;;;;;;7.93;3.58;;;22.80;99.90;;;;;;5017675;28;20040;-66
2022/07/25 00:17:53;;;;;;;5.63;2.90;;;22.80;99.90;;;;;;5034680;28;20095;-66
2022/07/25 00:20:19;;;;;;;5.32;3.13;;;22.40;99.90;;;;;;5052814;28;20049;-66
2022/07/25 00:22:45;;;;;;;5.72;3.50;;;;;;;;;;5051388;28;20120;-66
2022/07/25 00:25:11;;;;;;;6.85;3.60;;;;;;;;;;5052877;28;20037;-66
2022/07/25 00:27:37;;;;;;;7.10;3.42;;;;;;;;;;5034864;28;20045;-66
2022/07/25 00:30:04;;;;;;;8.90;4.38;;;;;;;;;;5017067;28;20050;-67
2022/07/25 00:32:30;;;;;;;6.60;3.42;;;;;;;;;;5034782;28;20044;-66
2022/07/25 00:34:56;;;;;;;6.70;3.75;;;;;;;;;;5052220;28;20461;-66
2022/07/25 00:37:22;;;;;;;5.80;3.83;;;;;;;;;;5033854;28;20044;-66
2022/07/25 00:39:48;;;;;;;5.45;3.38;;;;;;;;;;5034337;28;20041;-66
2022/07/25 00:42:14;;;;;;;6.43;3.60;;;;;;;;;;5034986;28;20433;-66
2022/07/25 00:44:40;;;;;;;6.35;4.30;;;;;;;;;;5051407;28;20501;-67
2022/07/25 00:47:06;;;;;;;6.90;3.67;;;;;;;;;;5034743;28;20385;-67
2022/07/25 00:49:32;;;;;;;7.65;3.67;;;;;;;;;;5033982;28;20044;-67
2022/07/25 00:51:59;;;;;;;7.88;4.53;;;21.80;99.90;;;;;;5034237;28;20044;-66
2022/07/25 00:54:24;;;;;;;7.10;4.13;;;21.60;99.90;;;;;;5034339;28;20045;-66
2022/07/25 00:56:50;;;;;;;6.65;3.97;;;21.80;99.90;;;;;;5033780;28;20390;-66
2022/07/25 00:59:16;;;;;;;7.38;4.20;;;21.70;99.90;;;;;;5034523;28;20033;-66
2022/07/25 01:01:44;;;;;;;6.82;3.70;;;21.90;99.90;;;;;;5017820;28;20052;-66
2022/07/25 01:04:10;;;;;;;5.82;3.83;;;;;;;;;;5017211;28;20099;-66
2022/07/25 01:06:36;;;;;;;5.68;3.90;;;21.50;99.90;;;;;;5017661;28;20044;-66
2022/07/25 01:09:02;;;;;;;8.00;4.30;;;21.60;99.90;;;;;;5051808;28;20045;-66
2022/07/25 01:11:28;;;;;;;7.40;4.18;;;;;;;;;;5033413;28;20039;-66
2022/07/25 01:13:54;;;;;;;6.80;4.22;;;;;;;;;;5017570;28;20033;-66
2022/07/25 01:16:20;;;;;;;7.13;3.90;;;21.60;99.90;;;;;;5017816;28;20099;-66
2022/07/25 01:18:46;;;;;;;6.88;3.70;;;21.60;99.90;;;;;;5016300;28;20428;-67
2022/07/25 01:21:13;;;;;;;6.63;4.47;;;21.40;99.90;;;;;;5034278;28;20041;-66
2022/07/25 01:23:39;;;;;;;5.95;3.85;;;21.60;99.90;;;;;;5051839;28;20073;-66
2022/07/25 01:26:05;;;;;;;6.30;3.88;;;;;;;;;;5051093;28;20040;-66
2022/07/25 01:28:31;;;;;;;8.10;4.53;;;21.00;99.90;;;;;;5017335;28;20041;-66
2022/07/25 01:30:57;;;;;;;10.63;5.18;;;21.10;99.90;;;;;;5017670;28;20052;-66
2022/07/25 01:33:22;;;;;;;6.78;4.72;;;21.60;99.90;;;;;;5050834;28;20041;-66
2022/07/25 01:35:49;;;;;;;9.13;7.22;;;21.20;99.90;;;;;;5051819;28;20041;-66
2022/07/25 01:38:15;;;;;;;9.50;5.10;;;21.50;99.90;;;;;;5034125;28;20047;-66
2022/07/25 01:40:42;;;;;;;9.52;7.30;;;20.90;99.90;;;;;;5016634;28;20040;-66
2022/07/25 01:43:08;;;;;;;45.20;40.17;;;20.70;99.90;;;;;;5037850;28;20056;-66
2022/07/25 01:45:34;;;;;;;45.10;37.45;;;20.70;99.90;;;;;;5038038;28;20379;-66
2022/07/25 01:48:00;;;;;;;35.60;29.73;;;;;;;;;;5037234;28;20406;-66
2022/07/25 01:50:25;;;;;;;26.33;21.77;;;21.20;99.90;;;;;;5055659;28;20040;-66
2022/07/25 01:52:51;;;;;;;21.55;17.73;;;21.10;99.90;;;;;;5036759;28;20075;-66
2022/07/25 01:55:17;;;;;;;18.10;13.23;;;21.00;99.90;;;;;;5055693;28;20076;-66
2022/07/25 01:57:43;;;;;;;18.85;14.27;;;21.00;99.90;;;;;;5037240;28;20052;-66
2022/07/25 02:00:12;;;;;;;30.48;23.75;;;21.00;99.90;;;;;;5036803;28;20052;-66
2022/07/25 02:02:39;;;;;;;26.35;19.25;;;20.90;99.90;;;;;;5020971;28;20044;-66
2022/07/25 02:05:06;;;;;;;30.77;22.25;;;20.80;99.90;;;;;;5055200;28;20497;-66
2022/07/25 02:07:32;;;;;;;27.23;20.65;;;20.90;99.90;;;;;;5036525;28;20490;-66
2022/07/25 02:09:58;;;;;;;19.70;14.52;;;;;;;;;;5055073;28;20037;-66
2022/07/25 02:12:29;;;;;;;17.52;10.80;;;20.90;99.90;;;;;;5037417;28;20504;-67
2022/07/25 02:14:55;;;;;;;12.60;8.65;;;20.60;99.90;;;;;;5019948;28;20052;-67
2022/07/25 02:17:21;;;;;;;15.38;10.00;;;20.90;99.90;;;;;;5037590;28;20088;-66
2022/07/25 02:19:46;;;;;;;13.35;9.77;;;21.10;99.90;;;;;;5036680;28;20405;-67
2022/07/25 02:22:12;;;;;;;18.05;12.02;;;20.90;99.90;;;;;;5036458;28;20127;-67
2022/07/25 02:24:38;;;;;;;25.67;19.13;;;20.80;99.90;;;;;;5020450;28;20447;-67
2022/07/25 02:27:04;;;;;;;32.08;22.13;;;21.00;99.90;;;;;;5036966;28;20047;-67
2022/07/25 02:29:31;;;;;;;36.78;28.58;;;21.00;99.90;;;;;;5019731;28;20049;-67
2022/07/25 02:31:57;;;;;;;31.65;23.80;;;20.70;99.90;;;;;;5037104;28;20395;-67
2022/07/25 02:34:22;;;;;;;24.45;18.20;;;21.20;99.90;;;;;;5054609;28;20047;-66
2022/07/25 02:36:48;;;;;;;19.98;14.27;;;20.70;99.90;;;;;;5035999;28;20120;-67
2022/07/25 02:39:14;;;;;;;16.95;12.48;;;20.80;99.90;;;;;;5054858;28;20033;-67
2022/07/25 02:41:40;;;;;;;15.00;10.57;;;20.90;99.90;;;;;;5036676;28;20037;-67
2022/07/25 02:44:06;;;;;;;12.85;8.43;;;20.70;99.90;;;;;;5019678;28;20052;-67
2022/07/25 02:46:32;;;;;;;16.05;12.25;;;20.80;99.90;;;;;;5054658;28;20124;-67
2022/07/25 02:48:58;;;;;;;16.20;12.23;;;20.60;99.90;;;;;;5036906;28;20414;-66
2022/07/25 02:51:24;;;;;;;15.50;11.13;;;;;;;;;;5053414;28;20059;-67
2022/07/25 02:53:50;;;;;;;17.67;12.60;;;20.60;99.90;;;;;;5054152;28;20401;-66
2022/07/25 02:56:16;;;;;;;22.10;13.05;;;20.70;99.90;;;;;;5035842;28;20037;-66
2022/07/25 02:58:41;;;;;;;33.58;20.30;;;20.80;99.90;;;;;;5054489;28;20052;-66
2022/07/25 03:01:07;;;;;;;19.83;15.98;;;20.80;99.90;;;;;;5036380;28;20040;-66
2022/07/25 03:03:33;;;;;;;21.50;14.68;;;20.70;99.90;;;;;;5053524;28;20068;-67
2022/07/25 03:05:59;;;;;;;15.10;10.07;;;20.80;99.90;;;;;;5036014;28;20044;-66
2022/07/25 03:08:24;;;;;;;9.95;6.03;;;20.70;99.90;;;;;;5054140;28;20040;-66
2022/07/25 03:10:50;;;;;;;9.02;6.00;;;20.80;99.90;;;;;;5018762;28;20044;-66
2022/07/25 03:13:16;;;;;;;12.07;6.03;;;20.70;99.90;;;;;;5035746;28;20043;-68
2022/07/25 03:15:41;;;;;;;8.65;5.65;;;20.90;99.90;;;;;;5037314;28;20056;-68
2022/07/25 03:18:07;;;;;;;15.82;11.32;;;20.80;99.90;;;;;;5050228;28;20044;-68
2022/07/25 03:20:33;;;;;;;10.82;7.07;;;20.80;99.90;;;;;;5019195;28;20056;-68
2022/07/25 03:22:58;;;;;;;15.32;10.23;;;20.70;99.90;;;;;;5035768;28;20049;-68
2022/07/25 03:25:24;;;;;;;12.07;8.02;;;20.70;99.90;;;;;;5018479;28;20073;-68
2022/07/25 03:27:49;;;;;;;14.05;8.68;;;20.80;99.90;;;;;;5035918;28;20041;-68
2022/07/25 03:30:16;;;;;;;7.45;5.63;;;;;;;;;;5054118;28;20401;-68
2022/07/25 03:32:42;;;;;;;10.10;6.20;;;;;;;;;;5018424;28;20059;-68
2022/07/25 03:35:08;;;;;;;11.02;7.60;;;20.70;99.90;;;;;;5053320;28;20509;-68
2022/07/25 03:37:33;;;;;;;9.45;6.68;;;20.70;99.90;;;;;;5053517;28;20120;-67
2022/07/25 03:39:59;;;;;;;8.88;5.53;;;20.60;99.90;;;;;;5034712;28;20120;-66
2022/07/25 03:42:25;;;;;;;7.53;5.60;;;20.70;99.90;;;;;;5035665;28;20048;-66
2022/07/25 03:44:50;;;;;;;7.82;5.38;;;20.70;99.90;;;;;;5019333;28;20098;-66
2022/07/25 03:47:16;;;;;;;9.27;5.75;;;20.60;99.90;;;;;;5035118;28;20520;-66
2022/07/25 03:49:42;;;;;;;8.77;5.55;;;20.80;99.90;;;;;;5052900;28;20053;-66
2022/07/25 03:52:08;;;;;;;7.55;4.88;;;20.70;99.90;;;;;;5035632;28;20048;-66
2022/07/25 03:54:34;;;;;;;9.73;4.72;;;;;;;;;;5030961;28;20042;-66
2022/07/25 03:56:59;;;;;;;6.88;4.65;;;20.70;99.90;;;;;;5015803;28;20041;-66
2022/07/25 03:59:25;;;;;;;9.43;4.95;;;20.70;99.90;;;;;;4998936;28;20040;-66
2022/07/25 04:01:51;;;;;;;6.53;4.10;;;21.10;99.90;;;;;;5032645;28;20049;-66
2022/07/25 04:04:18;;;;;;;7.75;4.97;;;20.60;99.90;;;;;;5015121;28;20125;-66
2022/07/25 04:06:44;;;;;;;9.43;5.85;;;;;;;;;;5032068;28;20037;-66
2022/07/25 04:09:11;;;;;;;6.97;4.82;;;20.80;99.90;;;;;;5042221;28;20047;-66
2022/07/25 04:11:37;;;;;;;10.27;5.50;;;20.50;99.90;;;;;;5034988;28;20051;-66
2022/07/25 04:14:03;;;;;;;9.52;5.22;;;20.50;99.90;;;;;;5017700;28;20405;-66
2022/07/25 04:16:29;;;;;;;8.75;5.55;;;;;;;;;;5034923;28;20102;-66
2022/07/25 04:18:56;;;;;;;8.75;5.53;;;;;;;;;;5034699;28;20036;-66
2022/07/25 04:21:22;;;;;;;9.95;5.32;;;20.40;99.90;;;;;;5017612;28;20045;-66
2022/07/25 04:23:48;;;;;;;8.23;5.00;;;20.40;99.90;;;;;;5034873;28;20127;-66
2022/07/25 04:26:14;;;;;;;6.95;4.95;;;;;;;;;;5035075;28;20041;-66
2022/07/25 04:28:40;;;;;;;9.25;5.13;;;20.60;99.90;;;;;;5051552;28;20506;-66
2022/07/25 04:31:05;;;;;;;7.50;5.63;;;20.90;99.90;;;;;;5052545;28;20040;-66
2022/07/25 04:33:31;;;;;;;11.27;6.05;;;20.50;99.90;;;;;;5034763;28;20044;-66
2022/07/25 04:35:57;;;;;;;8.57;6.10;;;20.60;99.90;;;;;;5034184;28;20511;-66
2022/07/25 04:38:22;;;;;;;8.25;5.65;;;20.50;99.90;;;;;;5017879;28;20048;-66
2022/07/25 04:40:48;;;;;;;9.88;6.53;;;20.60;99.90;;;;;;5052269;28;20509;-66
2022/07/25 04:43:14;;;;;;;8.95;6.22;;;20.80;99.90;;;;;;5018028;28;20094;-66
2022/07/25 04:45:40;;;;;;;9.45;6.25;;;20.60;99.90;;;;;;5052387;28;20474;-66
2022/07/25 04:48:05;;;;;;;9.70;6.47;;;20.60;99.90;;;;;;5034055;28;20149;-66
2022/07/25 04:50:31;;;;;;;8.65;5.90;;;20.60;99.90;;;;;;5016998;28;20138;-66
2022/07/25 04:52:57;;;;;;;7.43;5.80;;;20.80;99.90;;;;;;5017897;28;20044;-66
2022/07/25 04:55:22;;;;;;;8.20;5.72;;;20.70;99.90;;;;;;5034373;28;20444;-66
2022/07/25 04:57:48;;;;;;;7.28;5.05;;;20.70;99.90;;;;;;5033729;28;20041;-66
2022/07/25 05:00:15;;;;;;;8.77;5.57;;;20.70;99.90;;;;;;5034440;28;20501;-66
2022/07/25 05:02:41;;;;;;;10.35;5.78;;;20.70;99.90;;;;;;5052284;28;20037;-66
2022/07/25 05:05:08;;;;;;;11.07;6.50;;;20.70;99.90;;;;;;5051174;28;20059;-66
2022/07/25 05:07:34;;;;;;;8.18;5.35;;;20.90;99.90;;;;;;5034271;28;20045;-66
2022/07/25 05:10:00;;;;;;;9.63;5.85;;;20.80;99.90;;;;;;5016821;28;20044;-66
2022/07/25 05:12:26;;;;;;;7.75;5.47;;;20.90;99.90;;;;;;5034023;28;20102;-66
2022/07/25 05:14:52;;;;;;;9.38;6.13;;;20.80;99.90;;;;;;5051657;28;20048;-66
2022/07/25 05:17:18;;;;;;;8.18;6.25;;;20.80;99.90;;;;;;5051613;28;20068;-66
2022/07/25 05:19:44;;;;;;;9.90;6.00;;;21.00;99.90;;;;;;5051166;28;20482;-66
2022/07/25 05:22:09;;;;;;;10.05;6.68;;;20.90;99.90;;;;;;5034506;28;20485;-66
2022/07/25 05:24:36;;;;;;;10.80;5.78;;;21.00;99.90;;;;;;5016578;28;20135;-66
2022/07/25 05:27:03;;;;;;;10.95;6.88;;;20.90;99.90;;;;;;5051596;28;20039;-66
2022/07/25 05:29:29;;;;;;;8.43;6.03;;;21.00;99.90;;;;;;5033772;28;20120;-66
2022/07/25 05:31:55;;;;;;;10.30;6.32;;;21.00;99.90;;;;;;5050980;28;20029;-66
2022/07/25 05:34:21;;;;;;;11.90;7.03;;;21.00;99.90;;;;;;5030407;28;20045;-66
2022/07/25 05:36:46;;;;;;;10.07;7.30;;;20.80;99.90;;;;;;5031802;28;20034;-66
2022/07/25 05:39:12;;;;;;;9.73;6.53;;;21.10;99.90;;;;;;5013586;28;20037;-66
2022/07/25 05:41:38;;;;;;;10.13;6.63;;;21.00;99.90;;;;;;5030410;28;20048;-66
2022/07/25 05:44:04;;;;;;;9.95;6.80;;;21.10;99.90;;;;;;5014007;28;20132;-66
2022/07/25 05:46:34;;;;;;;11.27;6.90;;;20.90;99.90;;;;;;5013368;28;20113;-66
2022/07/25 05:48:59;;;;;;;11.55;6.90;;;21.50;99.90;;;;;;5045330;28;20037;-66
2022/07/25 05:51:26;;;;;;;13.27;7.45;;;21.20;99.90;;;;;;5030004;28;20041;-66
2022/07/25 05:53:52;;;;;;;13.35;7.45;;;21.20;99.90;;;;;;5003125;28;20603;-67
2022/07/25 05:56:17;;;;;;;10.60;8.18;;;21.10;99.90;;;;;;5051615;28;20045;-66
2022/07/25 05:58:43;;;;;;;12.98;7.97;;;;;;;;;;5029958;28;20045;-66
2022/07/25 06:01:14;;;;;;;10.55;7.00;;;;;;;;;;5041746;28;20069;-66
2022/07/25 06:03:41;;;;;;;9.60;6.38;;;21.30;99.90;;;;;;5033531;28;20041;-66
2022/07/25 06:06:09;;;;;;;9.38;6.50;;;;;;;;;;5032419;28;20045;-66
2022/07/25 06:08:36;;;;;;;9.07;5.90;;;21.80;99.90;;;;;;5031363;28;20454;-67
2022/07/25 06:11:03;;;;;;;16.98;7.30;;;;;;;;;;5030220;28;20053;-67
2022/07/25 06:13:29;;;;;;;10.10;7.60;;;;;;;;;;5029925;28;20049;-67
2022/07/25 06:15:56;;;;;;;10.32;7.28;;;;;;;;;;5030748;28;20132;-66
2022/07/25 06:18:23;;;;;;;10.75;7.22;;;;;;;;;;5030799;28;20512;-66
2022/07/25 06:20:49;;;;;;;8.63;7.13;;;;;;;;;;5009921;28;20056;-65
2022/07/25 06:23:15;;;;;;;9.93;7.50;;;;;;;;;;5025190;28;20048;-65
2022/07/25 06:25:41;;;;;;;10.68;7.57;;;;;;;;;;5027427;28;20116;-67
2022/07/25 06:28:07;;;;;;;11.25;7.80;;;;;;;;;;5011433;28;20438;-67
2022/07/25 06:30:34;;;;;;;10.63;7.25;;;;;;;;;;5031241;28;20099;-67
2022/07/25 06:33:00;;;;;;;11.68;7.50;;;;;;;;;;5032182;28;20045;-66
2022/07/25 06:35:26;;;;;;;11.05;7.80;;;;;;;;;;5029353;28;20053;-66
2022/07/25 06:37:52;;;;;;;11.43;7.47;;;;;;;;;;5042463;28;20087;-66
2022/07/25 06:40:18;;;;;;;10.90;7.32;;;;;;;;;;5031617;28;20136;-66
2022/07/25 06:42:46;;;;;;;10.90;6.60;;;;;;;;;;5041700;28;20033;-64
2022/07/25 06:45:12;;;;;;;9.15;7.47;;;;;;;;;;5050917;28;20159;-67
2022/07/25 06:47:40;;;;;;;11.20;7.35;;;;;;;;;;5043563;28;20079;-67
2022/07/25 06:50:07;;;;;;;12.23;7.75;;;;;;;;;;5041130;28;20575;-67
2022/07/25 06:52:33;;;;;;;10.07;7.32;;;;;;;;;;5040809;28;20537;-66
2022/07/25 06:54:58;;;;;;;11.55;8.00;;;22.70;99.90;;;;;;5033912;28;20042;-66
2022/07/25 06:57:24;;;;;;;9.65;7.13;;;22.90;99.90;;;;;;5028572;28;20042;-74
2022/07/25 06:59:50;;;;;;;8.93;6.72;;;23.00;99.90;;;;;;5026857;28;20155;-66
2022/07/25 07:02:15;;;;;;;10.45;7.00;;;22.90;99.90;;;;;;5024795;28;20038;-66
2022/07/25 07:04:41;;;;;;;8.65;6.78;;;;;;;;;;5030172;28;20134;-74
2022/07/25 07:07:07;;;;;;;9.43;6.70;;;;;;;;;;5028751;28;20033;-72
2022/07/25 07:09:33;;;;;;;12.43;7.15;;;;;;;;;;5043338;28;20048;-73
2022/07/25 07:12:01;;;;;;;10.65;7.20;;;;;;;;;;5031545;28;20041;-72
2022/07/25 07:14:26;;;;;;;12.27;7.47;;;23.60;99.90;;;;;;5035005;28;20073;-72
2022/07/25 07:16:52;;;;;;;9.70;6.63;;;23.60;99.90;;;;;;5029324;28;20479;-72
2022/07/25 07:19:18;;;;;;;8.05;5.63;;;23.50;99.90;;;;;;5033962;28;20482;-72
2022/07/25 07:21:44;;;;;;;8.45;6.30;;;23.40;99.90;;;;;;5030081;28;20052;-72
2022/07/25 07:24:10;;;;;;;8.88;5.60;;;23.40;99.90;;;;;;4996560;28;20479;-72
2022/07/25 07:26:36;;;;;;;7.38;4.68;;;23.40;99.90;;;;;;5019615;28;20187;-72
2022/07/25 07:29:02;;;;;;;8.27;3.75;;;23.40;99.90;;;;;;5012527;28;20137;-72
2022/07/25 07:31:29;;;;;;;7.93;3.92;;;23.40;99.90;;;;;;5015740;28;20037;-72
2022/07/25 07:33:55;;;;;;;5.45;3.30;;;23.30;99.90;;;;;;4993482;28;20076;-72
2022/07/25 07:36:21;;;;;;;6.63;3.15;;;23.40;99.90;;;;;;4994843;28;20172;-72
2022/07/25 07:38:47;;;;;;;5.93;2.85;;;23.40;99.90;;;;;;5007507;28;20529;-77
2022/07/25 07:41:13;;;;;;;6.25;2.60;;;23.50;99.90;;;;;;5015250;28;20477;-75
2022/07/25 07:43:39;;;;;;;5.18;2.47;;;23.30;99.90;;;;;;5020561;28;21463;-75
2022/07/25 07:46:05;;;;;;;5.35;2.35;;;23.50;99.90;;;;;;5025477;28;20048;-74
2022/07/25 07:48:31;;;;;;;6.97;2.08;;;23.40;99.90;;;;;;5014859;28;20040;-73
2022/07/25 07:50:58;;;;;;;5.95;2.10;;;23.10;99.90;;;;;;5042172;28;20033;-74
2022/07/25 07:56:11;;;;;;;7.70;2.78;;;;;;;;;;5023807;28;20502;-74
2022/07/25 07:58:37;;;;;;;5.47;2.42;;;;;;;;;;5004376;28;20517;-73
2022/07/25 08:01:03;;;;;;;5.57;2.78;;;;;;;;;;5014625;28;20106;-74
2022/07/25 08:03:29;;;;;;;5.32;2.33;;;22.20;99.90;;;;;;5028285;28;20029;-74
2022/07/25 08:05:55;;;;;;;5.20;2.78;;;;;;;;;;4999648;28;20868;-75
2022/07/25 08:08:22;;;;;;;5.30;2.65;;;;;;;;;;5009938;28;20495;-74
2022/07/25 08:10:48;;;;;;;4.45;2.30;;;;;;;;;;5021794;28;20055;-74
2022/07/25 08:13:15;;;;;;;5.60;2.63;;;;;;;;;;5005834;28;20049;-74
2022/07/25 08:15:42;;;;;;;7.28;2.40;;;;;;;;;;5002345;28;20073;-74
2022/07/25 08:18:08;;;;;;;6.57;2.95;;;;;;;;;;5024739;28;20447;-76
2022/07/25 08:20:34;;;;;;;8.55;2.72;;;;;;;;;;5045826;28;20053;-75
2022/07/25 08:23:01;;;;;;;8.43;3.03;;;21.60;99.90;;;;;;5024809;28;20034;-66
2022/07/25 08:25:27;;;;;;;8.52;2.38;;;21.70;99.90;;;;;;5034012;28;20103;-65
2022/07/25 08:27:53;;;;;;;6.15;2.40;;;;;;;;;;5036340;28;20394;-66
2022/07/25 08:30:18;;;;;;;3.67;1.90;;;22.50;99.90;;;;;;5015425;28;20453;-66
2022/07/25 08:32:47;;;;;;;4.60;2.58;;;21.70;99.90;;;;;;5044985;28;20041;-66
2022/07/25 08:35:13;;;;;;;5.13;2.35;;;21.80;99.90;;;;;;5051049;28;20056;-66
2022/07/25 08:37:39;;;;;;;4.78;2.20;;;;;;;;;;5050288;28;20486;-65
2022/07/25 08:40:05;;;;;;;5.45;2.30;;;22.10;99.90;;;;;;5032056;28;20044;-65
2022/07/25 08:42:33;;;;;;;5.70;2.33;;;22.10;99.90;;;;;;5046196;28;20033;-69
2022/07/25 08:45:03;;;;;;;5.93;2.25;;;22.40;99.90;;;;;;5039229;28;20033;-66
2022/07/25 08:47:30;;;;;;;6.97;2.30;;;22.30;99.90;;;;;;5019317;28;20113;-66
2022/07/25 08:49:57;;;;;;;4.75;2.13;;;22.30;99.90;;;;;;5013803;28;20479;-66
2022/07/25 08:52:22;;;;;;;3.55;1.98;;;22.30;99.90;;;;;;5031128;28;20045;-66
2022/07/25 08:54:49;;;;;;;5.03;2.00;;;22.40;99.90;;;;;;5046275;28;20033;-64
2022/07/25 08:57:16;;;;;;;4.80;2.00;;;22.40;99.90;;;;;;5044040;28;20038;-64
2022/07/25 08:59:42;;;;;;;5.45;2.55;;;22.40;99.90;;;;;;5047428;28;20037;-66
2022/07/25 09:02:13;;;;;;;4.65;2.25;;;22.80;99.90;;;;;;5042265;28;20131;-65
2022/07/25 09:04:39;;;;;;;8.98;2.90;;;22.80;99.90;;;;;;5029052;28;20045;-68
2022/07/25 09:07:06;;;;;;;6.63;2.05;;;;;;;;;;5039834;28;20041;-67
2022/07/25 09:09:37;;;;;;;5.60;2.45;;;22.30;99.90;;;;;;5013683;28;20037;-66
2022/07/25 09:12:04;;;;;;;5.03;1.48;;;23.20;99.90;;;;;;5032229;28;20115;-66
2022/07/25 09:14:29;;;;;;;6.03;2.30;;;23.00;99.90;;;;;;5031792;28;20472;-66
2022/07/25 09:16:55;;;;;;;5.85;2.35;;;22.70;99.90;;;;;;5031132;28;20113;-66
2022/07/25 09:19:23;;;;;;;4.68;2.10;;;22.50;99.90;;;;;;5014414;28;20520;-66
2022/07/25 09:22:06;;;;;;;8.35;2.40;;;21.90;99.90;;;;;;5013917;28;20111;-66
2022/07/25 09:24:33;;;;;;;6.47;2.80;;;22.10;99.90;;;;;;5013446;28;20047;-66
2022/07/25 09:27:08;;;;;;;7.40;2.75;;;22.20;99.90;;;;;;5014098;28;20517;-66
2022/07/25 09:29:35;;;;;;;6.32;2.85;;;21.90;99.90;;;;;;4998008;28;20044;-66
2022/07/25 09:32:12;;;;;;;5.95;2.67;;;22.00;99.90;;;;;;5030940;28;20053;-66
2022/07/25 09:34:39;;;;;;;11.88;3.22;;;22.20;99.90;;;;;;5014154;28;20049;-66
2022/07/25 09:37:08;;;;;;;4.97;2.10;;;21.70;99.90;;;;;;5031060;28;20136;-66
2022/07/25 09:39:49;;;;;;;7.22;3.38;;;22.30;99.90;;;;;;5014241;28;20393;-66
2022/07/25 09:42:24;;;;;;;5.10;2.30;;;21.80;99.90;;;;;;5014478;28;20033;-66
2022/07/25 09:45:14;;;;;;;6.20;2.15;;;21.70;99.90;;;;;;5013620;28;20036;-66
2022/07/25 09:47:58;;;;;;;5.38;2.15;;;21.60;99.90;;;;;;5014017;28;20501;-66
2022/07/25 09:50:26;;;;;;;6.70;2.80;;;22.70;99.90;;;;;;5013993;28;20057;-66
2022/07/25 09:52:55;;;;;;;7.28;2.88;;;21.70;99.90;;;;;;5030757;28;20641;-66
2022/07/25 09:55:21;;;;;;;6.47;2.88;;;22.20;99.90;;;;;;5014199;28;20069;-66
2022/07/25 09:57:48;;;;;;;6.45;2.78;;;21.90;99.90;;;;;;5014147;28;20509;-65
2022/07/25 10:00:19;;;;;;;7.47;2.63;;;22.00;99.90;;;;;;5031066;28;20046;-65
2022/07/25 10:02:49;;;;;;;8.00;2.72;;;21.90;99.90;;;;;;5015425;28;20063;-65
2022/07/25 10:05:37;;;;;;;9.05;2.88;;;22.20;99.90;;;;;;5017179;28;20124;-64
2022/07/25 10:08:06;;;;;;;8.45;3.50;;;22.30;99.90;;;;;;5017484;28;20045;-65
2022/07/25 10:10:38;;;;;;;8.27;3.20;;;22.50;99.90;;;;;;5035211;28;20041;-65
2022/07/25 10:13:09;;;;;;;9.93;2.80;;;22.40;99.90;;;;;;5017123;28;20037;-65
2022/07/25 10:15:53;;;;;;;5.35;2.53;;;22.60;99.90;;;;;;5017577;28;20083;-65
2022/07/25 10:18:24;;;;;;;8.63;2.60;;;22.50;99.90;;;;;;5017715;28;20045;-66
2022/07/25 10:20:53;;;;;;;8.32;2.63;;;22.60;99.90;;;;;;5000110;28;20125;-66
2022/07/25 10:23:27;;;;;;;6.43;2.50;;;22.60;99.90;;;;;;5017622;28;20033;-66
2022/07/25 10:26:09;;;;;;;7.88;3.03;;;22.70;99.90;;;;;;5001024;28;20041;-66
2022/07/25 10:28:47;;;;;;;10.07;2.65;;;22.70;99.90;;;;;;5000169;28;20079;-65
2022/07/25 10:31:29;;;;;;;7.32;3.08;;;22.80;99.90;;;;;;5001327;28;20509;-66
2022/07/25 10:33:57;;;;;;;6.93;3.28;;;22.80;99.90;;;;;;5033998;28;20091;-67
2022/07/25 10:36:27;;;;;;;7.53;2.95;;;22.80;99.90;;;;;;5017226;28;20050;-67
2022/07/25 10:38:59;;;;;;;6.75;2.55;;;22.80;99.90;;;;;;5016979;28;20037;-67
2022/07/25 10:41:27;;;;;;;8.77;3.17;;;22.60;99.90;;;;;;5034060;28;20041;-66
2022/07/25 10:43:58;;;;;;;8.93;2.83;;;22.50;99.90;;;;;;5034465;28;20029;-66
2022/07/25 10:46:26;;;;;;;11.98;2.97;;;22.50;99.90;;;;;;5016916;28;20041;-66
2022/07/25 10:49:03;;;;;;;10.25;3.10;;;22.50;99.90;;;;;;5015907;28;20045;-67
2022/07/25 10:51:36;;;;;;;8.65;3.03;;;22.60;99.90;;;;;;5017072;28;20074;-67
2022/07/25 10:54:17;;;;;;;9.25;2.72;;;22.30;99.90;;;;;;5034398;28;20495;-66
2022/07/25 10:56:52;;;;;;;6.82;2.60;;;22.50;99.90;;;;;;4999581;28;20041;-67
2022/07/25 10:59:32;;;;;;;9.15;2.70;;;22.30;99.90;;;;;;5016933;28;20072;-66
2022/07/25 11:01:58;;;;;;;6.75;2.90;;;22.00;99.90;;;;;;4999330;28;20041;-65
2022/07/25 11:04:24;;;;;;;10.02;2.72;;;21.70;99.90;;;;;;5016720;28;20045;-65
2022/07/25 11:06:50;;;;;;;9.50;3.13;;;21.60;99.90;;;;;;5016444;28;20041;-67
2022/07/25 11:09:36;;;;;;;11.80;2.70;;;21.70;99.90;;;;;;5033602;28;20033;-67
2022/07/25 11:12:02;;;;;;;8.27;2.83;;;21.50;99.90;;;;;;5016405;28;20049;-67
2022/07/25 11:14:32;;;;;;;8.07;2.70;;;22.20;99.90;;;;;;5033924;28;20041;-67
2022/07/25 11:17:21;;;;;;;6.53;3.03;;;21.90;99.90;;;;;;5033324;28;20049;-67
2022/07/25 11:19:58;;;;;;;9.65;3.83;;;22.00;99.90;;;;;;5016084;28;20061;-67
2022/07/25 11:22:25;;;;;;;9.32;2.60;;;21.90;99.90;;;;;;5032865;28;20397;-66
2022/07/25 11:24:51;;;;;;;9.35;3.00;;;22.10;99.90;;;;;;5015601;28;20150;-66
2022/07/25 11:27:31;;;;;;;9.82;3.28;;;22.10;99.90;;;;;;5000086;28;20045;-65
2022/07/25 11:30:13;;;;;;;13.27;2.85;;;22.10;99.90;;;;;;5033111;28;20041;-65
2022/07/25 11:32:41;;;;;;;9.05;2.85;;;22.20;99.90;;;;;;5015990;28;20097;-65
2022/07/25 11:35:08;;;;;;;8.93;2.88;;;22.30;99.90;;;;;;5015843;28;20125;-65
2022/07/25 11:37:36;;;;;;;11.05;2.90;;;22.30;99.90;;;;;;5015372;28;20115;-65
2022/07/25 11:40:02;;;;;;;9.60;3.20;;;21.90;99.90;;;;;;5015823;28;20037;-67
2022/07/25 11:42:45;;;;;;;10.68;3.55;;;22.40;99.90;;;;;;5015900;28;20132;-65
2022/07/25 11:45:22;;;;;;;9.93;2.95;;;22.00;99.90;;;;;;5015254;28;20045;-65
2022/07/25 11:48:11;;;;;;;11.38;2.80;;;21.90;99.90;;;;;;4999422;28;20041;-65
2022/07/25 11:50:42;;;;;;;10.68;3.30;;;22.30;99.90;;;;;;5015782;28;20482;-65
2022/07/25 11:53:10;;;;;;;11.15;2.80;;;22.10;99.90;;;;;;5015917;28;20046;-65
2022/07/25 11:55:39;;;;;;;6.85;2.72;;;22.80;99.90;;;;;;5033196;28;20163;-66
2022/07/25 11:58:05;;;;;;;10.40;2.80;;;23.10;99.90;;;;;;5014848;28;20218;-66
2022/07/25 12:00:42;;;;;;;6.85;2.47;;;23.20;99.90;;;;;;5015655;28;20034;-65
2022/07/25 12:03:11;;;;;;;5.82;2.30;;;23.70;99.90;;;;;;5015545;28;20045;-66
2022/07/25 12:05:37;;;;;;;8.88;2.78;;;;;;;;;;5032378;28;20040;-67
2022/07/25 12:08:19;;;;;;;9.45;3.55;;;23.00;99.90;;;;;;5032947;28;20051;-67
2022/07/25 12:10:46;;;;;;;6.70;2.75;;;22.80;99.90;;;;;;5015049;28;20033;-66
2022/07/25 12:13:25;;;;;;;8.77;3.00;;;22.50;99.90;;;;;;5032606;28;20175;-66
2022/07/25 12:15:52;;;;;;;8.50;2.97;;;22.50;99.90;;;;;;5015672;28;20120;-68
2022/07/25 12:18:18;;;;;;;8.95;3.17;;;22.30;99.90;;;;;;5026699;28;20049;-68
2022/07/25 12:20:44;;;;;;;9.23;3.08;;;22.20;99.90;;;;;;5051510;28;20398;-67
2022/07/25 12:23:12;;;;;;;8.27;2.63;;;22.50;99.90;;;;;;5025333;28;20044;-65
2022/07/25 12:25:43;;;;;;;7.80;2.88;;;22.40;99.90;;;;;;5020521;28;20140;-65
2022/07/25 12:28:09;;;;;;;7.50;3.05;;;22.80;99.90;;;;;;5000519;28;20479;-66
2022/07/25 12:30:37;;;;;;;8.23;2.58;;;23.50;99.90;;;;;;5031958;28;20062;-65
2022/07/25 12:33:04;;;;;;;10.38;3.35;;;22.90;99.90;;;;;;5030705;28;20040;-66
2022/07/25 12:35:30;;;;;;;6.88;2.70;;;22.90;99.90;;;;;;5052232;28;20174;-66
2022/07/25 12:37:56;;;;;;;8.05;2.58;;;22.70;99.90;;;;;;5061479;28;20121;-66
2022/07/25 12:40:22;;;;;;;8.05;3.35;;;22.60;99.90;;;;;;5058132;28;20091;-66
2022/07/25 12:42:48;;;;;;;8.98;2.95;;;22.40;99.90;;;;;;5057420;28;20503;-67
2022/07/25 12:45:15;;;;;;;11.90;2.92;;;22.50;99.90;;;;;;5039134;28;20128;-67
2022/07/25 12:47:45;;;;;;;7.15;2.97;;;22.50;99.90;;;;;;5030405;28;20033;-67
2022/07/25 12:50:12;;;;;;;10.52;3.40;;;22.70;99.90;;;;;;5015775;28;20132;-71
2022/07/25 12:52:38;;;;;;;8.05;3.33;;;22.80;99.90;;;;;;5031966;28;20045;-71
2022/07/25 12:55:06;;;;;;;9.05;2.92;;;22.70;99.90;;;;;;5030471;28;20509;-72
2022/07/25 12:57:33;;;;;;;10.35;2.60;;;22.80;99.90;;;;;;5031603;28;20048;-72
2022/07/25 12:59:59;;;;;;;12.45;3.47;;;22.70;99.90;;;;;;5048950;28;20049;-71
2022/07/25 13:02:25;;;;;;;8.57;3.30;;;22.80;99.90;;;;;;5051978;28;20037;-71
2022/07/25 13:04:50;;;;;;;9.13;3.58;;;22.70;99.90;;;;;;5020708;28;20156;-72
2022/07/25 13:07:16;;;;;;;7.50;2.78;;;22.60;99.90;;;;;;5028839;28;20124;-71
2022/07/25 13:09:42;;;;;;;6.55;3.30;;;22.50;99.90;;;;;;5029161;28;20116;-71